createdAt,value
2022-08-05T00:00:00.612Z,21.57
2022-08-05T00:02:28.644Z,21.53
2022-08-05T00:04:58.315Z,21.51
2022-08-05T00:07:59.663Z,21.54
2022-08-05T00:10:14.417Z,21.56
2022-08-05T00:12:55.652Z,21.59
2022-08-05T00:15:57.656Z,21.59
2022-08-05T00:18:21.654Z,21.56
2022-08-05T00:20:50.686Z,21.54
2022-08-05T00:23:44.415Z,21.54
2022-08-05T00:26:07.431Z,21.53
2022-08-05T00:28:38.416Z,21.55
2022-08-05T00:31:08.948Z,21.52
2022-08-05T00:34:54.676Z,21.49
2022-08-05T00:37:13.024Z,21.47
2022-08-05T00:39:15.039Z,21.46
2022-08-05T00:41:55.141Z,21.47
2022-08-05T00:44:30.575Z,21.42
2022-08-05T00:47:02.139Z,21.42
2022-08-05T00:49:32.695Z,21.28
2022-08-05T00:52:01.023Z,21.09
2022-08-05T00:54:30.212Z,20.92
2022-08-05T00:56:58.464Z,20.94
2022-08-05T00:59:27.467Z,20.95
2022-08-05T01:02:12.031Z,20.96
2022-08-05T01:04:42.190Z,20.96
2022-08-05T01:07:13.734Z,20.98
2022-08-05T01:09:42.380Z,21.00
2022-08-05T01:12:18.597Z,21.02
2022-08-05T01:14:52.873Z,21.04
2022-08-05T01:17:27.809Z,21.06
2022-08-05T01:20:07.272Z,21.07
2022-08-05T01:22:47.166Z,21.04
2022-08-05T01:25:53.519Z,21.03
2022-08-05T01:28:32.378Z,21.08
2022-08-05T01:31:03.503Z,21.06
2022-08-05T01:33:35.981Z,21.06
2022-08-05T01:36:13.126Z,21.01
2022-08-05T01:38:48.505Z,21.00
2022-08-05T01:41:21.864Z,20.97
2022-08-05T01:43:53.300Z,20.94
2022-08-05T01:46:42.238Z,20.94
2022-08-05T01:49:24.299Z,20.85
2022-08-05T01:51:58.453Z,20.87
2022-08-05T01:54:31.047Z,20.86
2022-08-05T01:58:10.981Z,20.79
2022-08-05T01:59:53.693Z,20.73
2022-08-05T02:02:28.135Z,20.69
2022-08-05T02:05:01.502Z,20.67
2022-08-05T02:07:33.657Z,20.63
2022-08-05T02:10:03.205Z,20.61
2022-08-05T02:12:37.278Z,20.50
2022-08-05T02:15:12.505Z,20.37
2022-08-05T02:18:27.964Z,20.37
2022-08-05T02:20:44.649Z,20.34
2022-08-05T02:23:19.635Z,20.18
2022-08-05T02:25:50.701Z,20.17
2022-08-05T02:28:28.843Z,20.15
2022-08-05T02:31:07.690Z,20.12
2022-08-05T02:33:48.534Z,20.07
2022-08-05T02:36:20.383Z,20.13
2022-08-05T02:38:53.215Z,20.18
2022-08-05T02:41:28.611Z,20.20
2022-08-05T02:44:11.283Z,20.09
2022-08-05T02:46:58.836Z,20.05
2022-08-05T02:49:35.974Z,20.09
2022-08-05T02:52:09.104Z,20.04
2022-08-05T02:54:41.605Z,20.03
2022-08-05T02:58:12.160Z,20.04
2022-08-05T03:00:03.149Z,19.79
2022-08-05T03:02:36.333Z,19.65
2022-08-05T03:05:06.029Z,19.67
2022-08-05T03:08:00.116Z,19.69
2022-08-05T03:10:25.137Z,19.71
2022-08-05T03:12:53.847Z,19.54
2022-08-05T03:15:23.711Z,19.43
2022-08-05T03:17:57.611Z,19.41
2022-08-05T03:20:26.354Z,19.35
2022-08-05T03:22:57.964Z,19.15
2022-08-05T03:25:32.710Z,19.00
2022-08-05T03:28:03.398Z,19.02
2022-08-05T03:30:34.102Z,19.06
2022-08-05T03:33:07.600Z,19.07
2022-08-05T03:35:41.013Z,18.96
2022-08-05T03:38:12.153Z,19.18
2022-08-05T03:40:41.716Z,19.13
2022-08-05T03:43:59.131Z,19.14
2022-08-05T03:46:02.362Z,19.30
2022-08-05T03:48:35.221Z,19.42
2022-08-05T03:52:49.027Z,19.38
2022-08-05T03:55:53.358Z,19.47
2022-08-05T03:56:58.933Z,19.65
2022-08-05T03:59:46.947Z,19.68
2022-08-05T04:02:17.575Z,19.59
2022-08-05T04:05:09.743Z,19.86
2022-08-05T04:07:53.559Z,19.97
2022-08-05T04:10:28.177Z,20.04
2022-08-05T04:12:59.626Z,20.22
2022-08-05T04:15:32.793Z,20.62
2022-08-05T04:18:03.042Z,21.07
2022-08-05T04:20:32.120Z,21.45
2022-08-05T04:23:01.283Z,21.85
2022-08-05T04:25:57.403Z,22.25
2022-08-05T04:28:17.121Z,22.63
2022-08-05T04:30:45.134Z,22.94
2022-08-05T04:33:14.126Z,23.23
2022-08-05T04:36:09.525Z,23.55
2022-08-05T04:38:39.487Z,23.77
2022-08-05T04:41:10.158Z,23.95
2022-08-05T04:43:40.681Z,24.00
2022-08-05T04:46:28.491Z,24.11
2022-08-05T04:48:58.770Z,24.17
2022-08-05T04:51:30.591Z,24.34
2022-08-05T04:53:58.722Z,24.27
2022-08-05T04:56:34.390Z,24.13
2022-08-05T04:59:17.464Z,24.25
2022-08-05T05:02:07.982Z,24.40
2022-08-05T05:04:43.846Z,24.64
2022-08-05T05:07:21.174Z,24.90
2022-08-05T05:09:52.092Z,25.01
2022-08-05T05:12:22.213Z,25.05
2022-08-05T05:14:51.313Z,25.30
2022-08-05T05:17:23.957Z,25.45
2022-08-05T05:19:54.841Z,25.36
2022-08-05T05:22:26.333Z,25.35
2022-08-05T05:24:56.788Z,25.39
2022-08-05T05:27:41.527Z,25.46
2022-08-05T05:30:15.491Z,25.36
2022-08-05T05:32:56.618Z,25.50
2022-08-05T05:35:25.092Z,25.40
2022-08-05T05:37:59.771Z,25.49
2022-08-05T05:40:31.451Z,25.60
2022-08-05T05:43:00.777Z,25.72
2022-08-05T05:45:30.445Z,25.63
2022-08-05T05:48:06.781Z,26.03
2022-08-05T05:50:44.062Z,26.27
2022-08-05T05:53:20.764Z,26.43
2022-08-05T05:55:51.619Z,26.51
2022-08-05T05:58:30.236Z,26.64
2022-08-05T06:01:04.874Z,26.61
2022-08-05T06:04:00.961Z,26.40
2022-08-05T06:06:31.072Z,25.97
2022-08-05T06:09:03.856Z,25.97
2022-08-05T06:11:31.988Z,26.19
2022-08-05T06:14:00.673Z,25.71
2022-08-05T06:16:36.790Z,25.74
2022-08-05T06:19:07.293Z,25.88
2022-08-05T06:21:38.033Z,25.88
2022-08-05T06:24:11.969Z,25.71
2022-08-05T06:26:51.328Z,25.45
2022-08-05T06:29:42.861Z,25.19
2022-08-05T06:32:20.912Z,25.37
2022-08-05T06:34:56.104Z,25.38
2022-08-05T06:37:57.526Z,25.36
2022-08-05T06:40:18.581Z,25.66
2022-08-05T06:42:52.147Z,25.34
2022-08-05T06:45:43.947Z,25.30
2022-08-05T06:48:47.245Z,25.20
2022-08-05T06:51:00.179Z,25.21
2022-08-05T06:53:29.147Z,25.37
2022-08-05T06:56:03.427Z,25.30
2022-08-05T06:58:36.535Z,24.98
2022-08-05T07:01:06.908Z,24.94
2022-08-05T07:03:35.529Z,25.07
2022-08-05T07:06:05.946Z,24.82
2022-08-05T07:08:42.824Z,24.83
2022-08-05T07:11:15.071Z,24.79
2022-08-05T07:14:01.102Z,24.98
2022-08-05T07:18:02.279Z,24.90
2022-08-05T07:22:28.154Z,25.31
2022-08-05T07:24:58.259Z,25.48
2022-08-05T07:27:57.304Z,25.24
2022-08-05T07:30:24.008Z,25.19
2022-08-05T07:32:56.166Z,25.23
2022-08-05T07:36:03.942Z,25.15
2022-08-05T07:38:32.850Z,25.27
2022-08-05T07:41:16.757Z,24.96
2022-08-05T07:43:51.755Z,24.84
2022-08-05T07:46:25.080Z,24.97
2022-08-05T07:49:02.006Z,24.90
2022-08-05T07:51:40.373Z,25.17
2022-08-05T07:54:16.221Z,25.47
2022-08-05T07:57:01.973Z,25.88
2022-08-05T07:59:39.800Z,25.89
2022-08-05T08:02:16.168Z,26.15
2022-08-05T08:04:45.871Z,26.94
2022-08-05T08:07:15.205Z,27.32
2022-08-05T08:09:52.273Z,27.08
2022-08-05T08:12:37.283Z,27.23
2022-08-05T08:15:15.424Z,27.24
2022-08-05T08:17:46.053Z,27.30
2022-08-05T08:20:43.194Z,27.60
2022-08-05T08:23:08.012Z,26.97
2022-08-05T08:26:00.870Z,26.57
2022-08-05T08:28:36.746Z,27.06
2022-08-05T08:31:15.101Z,27.56
2022-08-05T08:33:45.604Z,27.83
2022-08-05T08:36:52.510Z,28.20
2022-08-05T08:39:02.557Z,28.26
2022-08-05T08:41:51.873Z,28.07
2022-08-05T08:45:16.625Z,28.60
2022-08-05T08:47:21.944Z,29.17
2022-08-05T08:50:30.710Z,29.76
2022-08-05T08:52:55.886Z,30.30
2022-08-05T08:56:02.703Z,30.67
2022-08-05T08:58:13.293Z,30.54
2022-08-05T09:00:43.219Z,30.17
2022-08-05T09:03:16.088Z,30.22
2022-08-05T09:06:07.746Z,30.58
2022-08-05T09:08:40.320Z,30.93
2022-08-05T09:11:12.119Z,31.00
2022-08-05T09:14:10.344Z,31.58
2022-08-05T09:16:31.917Z,31.25
2022-08-05T09:19:01.028Z,30.73
2022-08-05T09:22:22.531Z,30.68
2022-08-05T09:24:24.265Z,31.54
2022-08-05T09:26:57.067Z,32.04
2022-08-05T09:29:47.501Z,32.16
2022-08-05T09:32:51.333Z,32.48
2022-08-05T09:35:11.581Z,32.17
2022-08-05T09:38:16.513Z,32.46
2022-08-05T09:40:52.279Z,31.85
2022-08-05T09:43:40.951Z,31.51
2022-08-05T09:46:27.798Z,32.17
2022-08-05T09:49:06.822Z,32.29
2022-08-05T09:51:39.975Z,32.34
2022-08-05T09:54:09.575Z,32.62
2022-08-05T09:56:39.374Z,32.77
2022-08-05T09:59:09.446Z,33.30
2022-08-05T10:01:45.750Z,33.08
2022-08-05T10:04:17.503Z,33.43
2022-08-05T10:06:58.949Z,33.94
2022-08-05T10:09:29.541Z,34.28
2022-08-05T10:12:30.436Z,34.73
2022-08-05T10:15:16.440Z,34.86
2022-08-05T10:17:56.631Z,35.39
2022-08-05T10:20:26.599Z,35.73
2022-08-05T10:22:58.456Z,35.50
2022-08-05T10:25:26.474Z,35.74
2022-08-05T10:28:13.290Z,35.28
2022-08-05T10:32:50.604Z,35.87
2022-08-05T10:33:35.092Z,35.97
2022-08-05T10:36:04.918Z,34.84
2022-08-05T10:38:36.032Z,33.39
2022-08-05T10:41:13.677Z,34.45
2022-08-05T10:43:50.145Z,34.71
2022-08-05T10:46:23.984Z,34.97
2022-08-05T10:49:00.508Z,34.04
2022-08-05T10:51:48.670Z,34.48
2022-08-05T10:54:56.232Z,34.50
2022-08-05T10:57:29.693Z,35.15
2022-08-05T11:00:18.162Z,35.49
2022-08-05T11:03:24.676Z,35.92
2022-08-05T11:06:05.529Z,36.24
2022-08-05T11:08:37.158Z,35.77
2022-08-05T11:11:52.403Z,35.80
2022-08-05T11:14:49.421Z,35.51
2022-08-05T11:17:57.418Z,35.27
2022-08-05T11:20:41.585Z,35.57
2022-08-05T11:24:03.952Z,36.05
2022-08-05T11:26:32.199Z,36.36
2022-08-05T11:29:06.926Z,35.30
2022-08-05T11:31:58.376Z,35.69
2022-08-05T11:34:51.709Z,35.28
2022-08-05T11:38:30.406Z,35.17
2022-08-05T11:41:12.829Z,35.01
2022-08-05T11:44:04.699Z,35.09
2022-08-05T11:46:58.366Z,35.16
2022-08-05T11:49:26.620Z,35.32
2022-08-05T11:51:57.580Z,35.08
2022-08-05T11:54:33.113Z,35.10
2022-08-05T11:57:08.482Z,34.50
2022-08-05T11:59:52.542Z,34.29
2022-08-05T12:02:31.154Z,34.59
2022-08-05T12:05:08.191Z,34.79
2022-08-05T12:08:08.133Z,34.96
2022-08-05T12:10:45.550Z,34.96
2022-08-05T12:13:28.345Z,34.92
2022-08-05T12:16:15.484Z,34.91
2022-08-05T12:18:52.316Z,34.90
2022-08-05T12:21:24.244Z,34.59
2022-08-05T12:24:04.505Z,34.06
2022-08-05T12:26:34.236Z,33.61
2022-08-05T12:29:03.194Z,33.91
2022-08-05T12:31:44.908Z,34.02
2022-08-05T12:34:21.269Z,34.07
2022-08-05T12:36:53.245Z,34.11
2022-08-05T12:39:21.433Z,34.02
2022-08-05T12:41:49.221Z,33.63
2022-08-05T12:44:33.259Z,33.70
2022-08-05T12:47:03.789Z,33.70
2022-08-05T12:50:04.197Z,33.74
2022-08-05T12:52:39.247Z,33.70
2022-08-05T12:55:23.603Z,33.75
2022-08-05T12:58:51.004Z,33.75
2022-08-05T13:02:00.355Z,33.61
2022-08-05T13:03:42.526Z,33.64
2022-08-05T13:06:18.135Z,33.70
2022-08-05T13:08:52.027Z,33.76
2022-08-05T13:11:25.429Z,33.72
2022-08-05T13:14:19.864Z,33.40
2022-08-05T13:16:54.099Z,33.48
2022-08-05T13:19:25.927Z,33.50
2022-08-05T13:21:56.737Z,33.66
2022-08-05T13:24:27.546Z,33.73
2022-08-05T13:27:17.148Z,33.79
2022-08-05T13:30:31.668Z,33.84
2022-08-05T13:32:42.266Z,33.75
2022-08-05T13:35:15.316Z,33.54
2022-08-05T13:37:55.586Z,33.61
2022-08-05T13:40:36.801Z,33.75
2022-08-05T13:43:12.082Z,33.69
2022-08-05T13:45:43.282Z,33.73
2022-08-05T13:48:58.870Z,33.70
2022-08-05T13:51:06.690Z,33.60
2022-08-05T13:53:47.969Z,33.34
2022-08-05T13:56:18.206Z,33.43
2022-08-05T13:58:52.983Z,33.48
2022-08-05T14:01:27.358Z,33.50
2022-08-05T14:04:26.960Z,33.60
2022-08-05T14:07:11.901Z,33.58
2022-08-05T14:09:46.525Z,33.74
2022-08-05T14:12:18.328Z,33.90
2022-08-05T14:15:01.404Z,34.15
2022-08-05T14:17:49.228Z,34.00
2022-08-05T14:20:18.403Z,33.98
2022-08-05T14:22:49.936Z,34.06
2022-08-05T14:25:22.512Z,34.04
2022-08-05T14:27:55.702Z,33.97
2022-08-05T14:30:26.701Z,33.82
2022-08-05T14:32:56.907Z,33.95
2022-08-05T14:35:37.111Z,33.66
2022-08-05T14:38:33.126Z,33.60
2022-08-05T14:41:06.335Z,33.61
2022-08-05T14:43:59.160Z,33.70
2022-08-05T14:46:28.124Z,33.64
2022-08-05T14:48:57.890Z,33.83
2022-08-05T14:51:30.895Z,33.21
2022-08-05T14:54:26.319Z,33.15
2022-08-05T14:56:47.969Z,33.46
2022-08-05T14:59:16.405Z,33.55
2022-08-05T15:01:48.055Z,33.79
2022-08-05T15:04:17.162Z,34.14
2022-08-05T15:06:49.219Z,34.36
2022-08-05T15:09:50.511Z,34.92
2022-08-05T15:12:08.971Z,35.08
2022-08-05T15:14:42.205Z,35.23
2022-08-05T15:17:46.222Z,35.21
2022-08-05T15:20:05.897Z,35.14
2022-08-05T15:22:33.641Z,35.06
2022-08-05T15:25:14.121Z,35.28
2022-08-05T15:27:51.975Z,35.18
2022-08-05T15:30:20.350Z,35.25
2022-08-05T15:32:50.234Z,35.28
2022-08-05T15:35:18.706Z,35.33
2022-08-05T15:38:32.421Z,35.15
2022-08-05T15:41:03.178Z,35.11
2022-08-05T15:43:26.936Z,35.06
2022-08-05T15:45:59.765Z,35.02
2022-08-05T15:48:28.894Z,35.05
2022-08-05T15:51:03.326Z,35.04
2022-08-05T15:53:38.375Z,35.02
2022-08-05T15:56:19.218Z,34.87
2022-08-05T15:58:48.923Z,34.68
2022-08-05T16:01:18.667Z,34.46
2022-08-05T16:03:48.524Z,34.37
2022-08-05T16:06:20.222Z,34.30
2022-08-05T16:08:51.084Z,34.11
2022-08-05T16:11:42.469Z,33.93
2022-08-05T16:14:10.218Z,33.78
2022-08-05T16:16:46.115Z,33.62
2022-08-05T16:19:25.838Z,33.45
2022-08-05T16:22:03.008Z,33.37
2022-08-05T16:24:41.191Z,33.32
2022-08-05T16:27:19.223Z,33.28
2022-08-05T16:30:01.382Z,33.30
2022-08-05T16:32:29.934Z,33.20
2022-08-05T16:34:58.864Z,33.07
2022-08-05T16:38:13.696Z,32.98
2022-08-05T16:40:29.229Z,32.91
2022-08-05T16:42:58.070Z,32.77
2022-08-05T16:46:04.125Z,32.62
2022-08-05T16:48:25.483Z,32.51
2022-08-05T16:50:54.260Z,32.46
2022-08-05T16:53:32.553Z,32.37
2022-08-05T16:56:11.724Z,32.33
2022-08-05T16:58:40.731Z,32.23
2022-08-05T17:01:10.808Z,32.14
2022-08-05T17:03:38.866Z,32.06
2022-08-05T17:06:07.718Z,31.87
2022-08-05T17:08:52.264Z,31.88
2022-08-05T17:11:23.523Z,31.67
2022-08-05T17:14:00.504Z,31.19
2022-08-05T17:16:37.086Z,30.84
2022-08-05T17:19:07.785Z,30.74
2022-08-05T17:21:39.617Z,30.77
2022-08-05T17:24:19.411Z,30.77
2022-08-05T17:26:58.340Z,30.84
2022-08-05T17:29:33.250Z,30.78
2022-08-05T17:32:03.451Z,30.66
2022-08-05T17:34:34.789Z,30.54
2022-08-05T17:37:04.595Z,30.46
2022-08-05T17:39:33.965Z,30.39
2022-08-05T17:42:20.355Z,30.36
2022-08-05T17:44:51.595Z,30.33
2022-08-05T17:47:22.177Z,30.32
2022-08-05T17:49:52.095Z,30.28
2022-08-05T17:52:29.141Z,30.26
2022-08-05T17:54:56.990Z,30.20
2022-08-05T17:57:24.992Z,30.16
2022-08-05T18:00:04.982Z,30.09
2022-08-05T18:02:35.225Z,30.07
2022-08-05T18:05:06.918Z,30.02
2022-08-05T18:07:42.035Z,29.93
2022-08-05T18:10:11.581Z,29.87
2022-08-05T18:12:41.856Z,29.81
2022-08-05T18:15:10.811Z,29.71
2022-08-05T18:17:58.855Z,29.63
2022-08-05T18:20:31.541Z,29.54
2022-08-05T18:23:09.509Z,29.46
2022-08-05T18:25:44.977Z,29.43
2022-08-05T18:28:16.437Z,29.34
2022-08-05T18:30:45.348Z,29.24
2022-08-05T18:33:14.779Z,29.16
2022-08-05T18:36:01.154Z,29.07
2022-08-05T18:38:54.159Z,29.01
2022-08-05T18:41:53.758Z,28.95
2022-08-05T18:44:10.844Z,28.92
2022-08-05T18:46:41.299Z,28.93
2022-08-05T18:49:30.728Z,28.93
2022-08-05T18:52:35.733Z,28.84
2022-08-05T18:55:10.371Z,28.79
2022-08-05T18:57:50.209Z,28.68
2022-08-05T19:00:28.826Z,28.77
2022-08-05T19:03:04.171Z,28.86
2022-08-05T19:06:13.369Z,28.93
2022-08-05T19:08:22.215Z,28.99
2022-08-05T19:11:04.522Z,29.00
2022-08-05T19:13:35.874Z,28.95
2022-08-05T19:16:24.555Z,28.80
2022-08-05T19:18:53.850Z,28.64
2022-08-05T19:21:27.595Z,28.44
2022-08-05T19:24:06.563Z,28.34
2022-08-05T19:26:36.951Z,28.33
2022-08-05T19:29:26.736Z,28.19
2022-08-05T19:32:08.633Z,27.68
2022-08-05T19:34:39.426Z,27.21
2022-08-05T19:37:09.942Z,26.96
2022-08-05T19:39:50.531Z,26.78
2022-08-05T19:42:34.888Z,26.62
2022-08-05T19:45:02.916Z,26.21
2022-08-05T19:47:34.106Z,25.89
2022-08-05T19:50:01.834Z,25.75
2022-08-05T19:52:32.479Z,25.56
2022-08-05T19:55:07.254Z,25.51
2022-08-05T19:57:49.104Z,25.47
2022-08-05T20:00:25.098Z,25.39
2022-08-05T20:02:53.410Z,25.22
2022-08-05T20:05:24.080Z,25.12
2022-08-05T20:07:58.844Z,25.16
2022-08-05T20:10:27.747Z,25.33
2022-08-05T20:12:56.635Z,25.32
2022-08-05T20:15:51.779Z,25.32
2022-08-05T20:18:33.622Z,25.39
2022-08-05T20:21:01.483Z,25.41
2022-08-05T20:23:40.737Z,25.33
2022-08-05T20:26:18.382Z,25.29
2022-08-05T20:28:48.339Z,24.91
2022-08-05T20:31:16.643Z,24.32
2022-08-05T20:33:45.892Z,24.31
2022-08-05T20:36:16.201Z,24.06
2022-08-05T20:38:54.007Z,23.95
2022-08-05T20:41:43.931Z,23.96
2022-08-05T20:44:17.111Z,23.67
2022-08-05T20:46:45.695Z,23.62
2022-08-05T20:49:14.443Z,23.65
2022-08-05T20:51:46.158Z,23.59
2022-08-05T20:54:24.755Z,23.36
2022-08-05T20:56:52.951Z,23.23
2022-08-05T20:59:27.145Z,22.34
2022-08-05T21:02:09.063Z,22.01
2022-08-05T21:04:39.476Z,22.33
2022-08-05T21:07:08.962Z,21.93
2022-08-05T21:09:38.387Z,21.72
2022-08-05T21:12:21.530Z,21.98
2022-08-05T21:14:54.225Z,21.83
2022-08-05T21:17:25.620Z,21.89
2022-08-05T21:19:56.067Z,21.98
2022-08-05T21:22:26.848Z,22.06
2022-08-05T21:24:57.514Z,21.96
2022-08-05T21:27:27.362Z,21.83
2022-08-05T21:29:56.001Z,21.58
2022-08-05T21:32:27.235Z,21.69
2022-08-05T21:35:17.746Z,21.76
2022-08-05T21:37:52.742Z,21.79
2022-08-05T21:40:23.356Z,21.78
2022-08-05T21:42:51.984Z,21.74
2022-08-05T21:45:24.450Z,21.76
2022-08-05T21:47:55.797Z,21.82
2022-08-05T21:50:25.303Z,21.73
2022-08-05T21:52:52.981Z,21.79
2022-08-05T21:56:01.478Z,21.63
2022-08-05T21:58:11.720Z,21.22
2022-08-05T22:00:40.434Z,20.79
2022-08-05T22:03:09.768Z,20.57
2022-08-05T22:05:48.673Z,20.59
2022-08-05T22:08:22.160Z,20.66
2022-08-05T22:10:53.575Z,20.76
2022-08-05T22:14:05.986Z,20.87
2022-08-05T22:16:41.066Z,20.84
2022-08-05T22:18:58.503Z,20.84
2022-08-05T22:21:27.058Z,20.82
2022-08-05T22:24:40.515Z,20.73
2022-08-05T22:27:19.360Z,20.66
2022-08-05T22:29:48.733Z,20.77
2022-08-05T22:32:23.107Z,20.61
2022-08-05T22:34:51.805Z,20.71
2022-08-05T22:37:19.450Z,20.42
2022-08-05T22:39:50.490Z,20.24
2022-08-05T22:42:25.397Z,20.20
2022-08-05T22:44:56.682Z,20.41
2022-08-05T22:47:29.170Z,20.40
2022-08-05T22:50:20.849Z,20.32
2022-08-05T22:52:48.063Z,20.46
2022-08-05T22:55:18.960Z,20.11
2022-08-05T22:57:49.060Z,20.16
2022-08-05T23:00:21.236Z,20.15
2022-08-05T23:02:50.268Z,20.07
2022-08-05T23:05:18.990Z,19.98
2022-08-05T23:07:50.947Z,20.07
2022-08-05T23:10:20.035Z,19.88
2022-08-05T23:12:51.496Z,19.82
2022-08-05T23:15:27.136Z,19.69
2022-08-05T23:18:02.159Z,19.52
2022-08-05T23:20:32.123Z,19.62
2022-08-05T23:23:00.825Z,19.32
2022-08-05T23:25:54.520Z,19.70
2022-08-05T23:28:28.594Z,19.43
2022-08-05T23:31:02.357Z,18.62
2022-08-05T23:34:04.557Z,18.67
2022-08-05T23:36:39.728Z,18.22
2022-08-05T23:39:12.862Z,18.36
2022-08-05T23:41:48.454Z,18.76
2022-08-05T23:44:17.396Z,18.71
2022-08-05T23:46:49.332Z,18.64
2022-08-05T23:49:23.883Z,18.82
2022-08-05T23:52:19.635Z,19.01
2022-08-05T23:54:50.886Z,19.20
2022-08-05T23:57:19.410Z,19.32
